Time;durP1;ratioP1;P1;durP2;ratioP2;P2;SDS_P1;SDS_P2;PMS_P1;PMS_P2;Temp;Humidity;BMP_temperature;BMP_pressure;BME280_temperature;BME280_humidity;BME280_pressure;Samples;Min_cycle;Max_cycle;Signal;HPM_P1;HPM_P2
2022/06/02 00:00:38;;;;;;;3.53;1.70;;;14.80;99.90;;;;;;5069155;28;20797;-74
2022/06/02 00:03:51;;;;;;;4.30;1.63;;;14.80;99.90;;;;;;5051073;28;20445;-75
2022/06/02 00:06:30;;;;;;;2.03;1.60;;;14.80;99.90;;;;;;5069003;28;20919;-74
2022/06/02 00:09:35;;;;;;;1.83;1.73;;;14.70;99.90;;;;;;5050880;28;20454;-74
2022/06/02 00:12:13;;;;;;;3.70;1.53;;;14.60;99.90;;;;;;5050918;28;20425;-74
2022/06/02 00:15:04;;;;;;;3.00;1.40;;;14.70;99.90;;;;;;5068846;28;20429;-74
2022/06/02 00:17:49;;;;;;;3.60;1.70;;;14.60;99.90;;;;;;5068767;28;20466;-73
2022/06/02 00:20:24;;;;;;;2.90;1.90;;;14.60;99.90;;;;;;5068803;28;20402;-73
2022/06/02 00:22:59;;;;;;;1.67;1.57;;;14.60;99.90;;;;;;5068790;28;20966;-73
2022/06/02 00:25:35;;;;;;;3.77;1.90;;;14.50;99.90;;;;;;5068757;28;20451;-73
2022/06/02 00:28:08;;;;;;;7.40;2.00;;;14.40;99.90;;;;;;5050305;28;20417;-73
2022/06/02 00:30:44;;;;;;;2.67;1.97;;;14.30;99.90;;;;;;5050385;28;20426;-73
2022/06/02 00:33:41;;;;;;;2.60;1.30;;;14.20;99.90;;;;;;5068646;28;20491;-73
2022/06/02 00:36:22;;;;;;;3.47;1.50;;;14.10;99.90;;;;;;5068563;28;20491;-73
2022/06/02 06:52:21;;;;;;;3.43;1.57;;;16.70;98.90;;;;;;5029929;28;20472;-74
2022/06/02 06:54:57;;;;;;;2.23;1.47;;;16.90;98.40;;;;;;5030044;28;20436;-74
2022/06/02 06:58:03;;;;;;;2.90;1.67;;;16.90;99.50;;;;;;5030197;28;20411;-74
2022/06/02 07:00:40;;;;;;;5.43;1.40;;;17.00;98.90;;;;;;5030173;28;20506;-74
2022/06/02 07:03:35;;;;;;;5.30;1.40;;;17.30;99.30;;;;;;5030772;28;20412;-74
2022/06/02 07:06:21;;;;;;;1.70;1.60;;;17.40;99.50;;;;;;5030535;28;20851;-74
2022/06/02 07:09:02;;;;;;;1.87;1.50;;;17.50;97.90;;;;;;5029834;28;20472;-74
2022/06/02 07:14:47;;;;;;;2.30;2.00;;;17.50;98.20;;;;;;5030272;28;20475;-74
2022/06/02 07:17:25;;;;;;;2.80;1.40;;;17.40;98.40;;;;;;5029774;28;20551;-74
2022/06/02 07:20:03;;;;;;;7.50;2.07;;;17.50;98.50;;;;;;5029796;28;20475;-74
2022/06/02 07:22:52;;;;;;;2.10;1.70;;;17.50;99.10;;;;;;5011682;28;20463;-74
2022/06/02 07:25:51;;;;;;;3.77;1.63;;;17.50;98.20;;;;;;5029344;28;20453;-74
2022/06/02 07:28:50;;;;;;;1.80;1.70;;;17.40;98.30;;;;;;5029445;28;20863;-74
2022/06/02 07:31:35;;;;;;;2.93;1.53;;;17.50;98.50;;;;;;5029222;28;20453;-74
2022/06/02 07:34:31;;;;;;;5.40;1.83;;;17.70;98.20;;;;;;5029033;28;20445;-74
2022/06/02 07:37:04;;;;;;;4.10;1.87;;;17.70;98.80;;;;;;5029063;28;20505;-74
2022/06/02 07:39:51;;;;;;;3.30;2.03;;;17.70;98.00;;;;;;5029014;28;20813;-74
2022/06/02 07:42:29;;;;;;;4.20;1.90;;;17.90;98.10;;;;;;5029223;28;20442;-74
2022/06/02 07:45:13;;;;;;;2.90;2.03;;;17.80;98.10;;;;;;5029443;28;20414;-74
2022/06/02 07:47:53;;;;;;;2.13;1.63;;;17.90;98.70;;;;;;5028984;28;20517;-74
2022/06/02 07:50:31;;;;;;;2.93;1.80;;;17.90;98.10;;;;;;5010647;28;20989;-74
2022/06/02 07:53:37;;;;;;;2.07;1.83;;;18.00;98.50;;;;;;5028752;28;20464;-74
2022/06/02 07:56:36;;;;;;;3.07;1.60;;;18.10;97.70;;;;;;5000214;28;20472;-74
2022/06/02 07:59:25;;;;;;;5.23;1.73;;;18.20;98.40;;;;;;5028507;28;20410;-74
2022/06/02 08:02:12;;;;;;;4.93;1.87;;;18.30;97.90;;;;;;5010550;28;20814;-74
2022/06/02 08:04:46;;;;;;;2.30;2.10;;;18.40;98.40;;;;;;5028578;28;20463;-74
2022/06/02 08:07:45;;;;;;;2.07;1.50;;;18.50;97.30;;;;;;5028785;28;20465;-74
2022/06/02 08:10:10;;;;;;;3.00;2.13;;;18.50;96.20;;;;;;4995850;28;20514;-74
2022/06/02 08:12:58;;;;;;;1.80;1.70;;;18.60;97.50;;;;;;5028312;28;20444;-74
2022/06/02 08:15:35;;;;;;;1.70;1.60;;;18.80;96.80;;;;;;5027877;28;20195;-74
2022/06/02 08:18:10;;;;;;;3.10;2.07;;;18.90;96.00;;;;;;5027851;28;21042;-74
2022/06/02 08:20:41;;;;;;;4.33;1.80;;;19.00;96.60;;;;;;5028076;28;20452;-74
2022/06/02 08:23:25;;;;;;;2.67;2.47;;;19.10;96.20;;;;;;5027717;28;20427;-75
2022/06/02 08:26:10;;;;;;;6.20;2.30;;;19.20;95.50;;;;;;5027411;28;20418;-74
2022/06/02 08:28:56;;;;;;;3.13;1.90;;;19.20;95.80;;;;;;5027570;28;20964;-74
2022/06/02 08:31:52;;;;;;;6.60;2.50;;;19.30;95.00;;;;;;5027352;28;20478;-74
2022/06/02 08:34:21;;;;;;;2.67;1.97;;;19.40;95.10;;;;;;5027353;28;20754;-74
2022/06/02 08:37:44;;;;;;;4.67;2.50;;;19.50;95.10;;;;;;5027399;28;20497;-74
2022/06/02 08:40:37;;;;;;;4.00;1.97;;;19.70;94.00;;;;;;4988677;28;20917;-74
2022/06/02 08:43:19;;;;;;;2.90;1.97;;;20.00;94.80;;;;;;5027273;28;20422;-74
2022/06/02 08:46:46;;;;;;;3.00;1.50;;;20.20;93.80;;;;;;5027233;28;20415;-74
2022/06/02 08:49:30;;;;;;;3.10;1.80;;;20.50;95.10;;;;;;4938325;29;20483;-74
2022/06/02 08:52:21;;;;;;;5.43;1.90;;;20.70;93.00;;;;;;5020282;28;20998;-74
2022/06/02 08:55:24;;;;;;;4.93;2.30;;;21.00;92.80;;;;;;5027212;28;20448;-74
2022/06/02 08:58:12;;;;;;;4.93;1.70;;;20.90;93.20;;;;;;5027131;28;20480;-74
2022/06/02 09:01:08;;;;;;;2.87;2.00;;;20.70;92.90;;;;;;5026855;28;20422;-74
2022/06/02 09:03:56;;;;;;;2.43;1.93;;;20.50;92.60;;;;;;5027019;28;20438;-74
2022/06/02 09:06:50;;;;;;;4.90;1.50;;;20.50;91.90;;;;;;5027312;28;20450;-74
2022/06/02 09:09:47;;;;;;;4.30;1.80;;;20.80;92.40;;;;;;5027074;28;21009;-74
2022/06/02 09:12:38;;;;;;;1.77;1.67;;;20.90;91.60;;;;;;5027129;28;20419;-74
2022/06/02 09:15:19;;;;;;;6.17;1.50;;;21.10;91.90;;;;;;5027309;28;20407;-74
2022/06/02 09:17:56;;;;;;;4.87;1.90;;;21.30;92.00;;;;;;5027252;28;20418;-74
2022/06/02 09:20:46;;;;;;;2.37;1.50;;;21.50;92.40;;;;;;5012131;28;20442;-74
2022/06/02 09:23:30;;;;;;;4.00;1.70;;;21.70;91.20;;;;;;5031574;28;20999;-74
2022/06/02 09:26:13;;;;;;;3.90;1.67;;;21.90;91.90;;;;;;5013488;28;20514;-74
2022/06/02 09:29:17;;;;;;;6.10;1.40;;;22.30;91.10;;;;;;5031399;28;21071;-74
2022/06/02 09:32:20;;;;;;;6.70;1.83;;;22.80;89.10;;;;;;4914967;29;20436;-75
2022/06/02 09:34:58;;;;;;;6.63;2.20;;;23.00;86.60;;;;;;4913558;29;20421;-74
2022/06/02 09:37:45;;;;;;;2.73;1.90;;;23.30;87.40;;;;;;5011533;28;20423;-74
2022/06/02 09:40:29;;;;;;;4.47;2.03;;;23.60;88.50;;;;;;5031010;28;20419;-75
2022/06/02 09:43:03;;;;;;;3.77;1.63;;;23.70;86.10;;;;;;5031069;28;20437;-75
2022/06/02 09:45:52;;;;;;;2.23;1.30;;;24.10;84.60;;;;;;5031217;28;20417;-75
2022/06/02 09:48:27;;;;;;;5.40;1.33;;;24.30;82.80;;;;;;5013408;28;20435;-75
2022/06/02 09:51:35;;;;;;;4.23;1.27;;;24.50;81.60;;;;;;5031442;28;20493;-75
2022/06/02 09:54:31;;;;;;;1.53;1.43;;;24.60;78.50;;;;;;5031437;28;20440;-75
2022/06/02 10:00:38;;;;;;;4.83;1.60;;;25.00;79.20;;;;;;5032587;28;20468;-75
2022/06/02 10:03:25;;;;;;;1.93;1.20;;;25.00;76.60;;;;;;5014253;28;20459;-75
2022/06/02 10:06:10;;;;;;;2.93;1.27;;;25.20;78.00;;;;;;5031333;28;20412;-75
2022/06/02 10:08:44;;;;;;;7.57;1.77;;;25.40;78.00;;;;;;5032103;28;20468;-75
2022/06/02 10:11:31;;;;;;;1.77;1.17;;;25.40;76.20;;;;;;5032193;28;20438;-75
2022/06/02 10:14:28;;;;;;;3.93;1.70;;;25.40;73.10;;;;;;5031981;28;20936;-75
2022/06/02 10:17:14;;;;;;;1.30;1.20;;;25.30;74.00;;;;;;5026868;28;20459;-75
2022/06/02 10:19:55;;;;;;;1.93;1.67;;;25.60;75.40;;;;;;4963855;28;20419;-75
2022/06/02 10:22:49;;;;;;;1.60;1.40;;;25.70;72.30;;;;;;5031859;28;20441;-75
2022/06/02 10:25:29;;;;;;;3.00;1.50;;;25.70;71.30;;;;;;4981629;28;20415;-74
2022/06/02 10:28:16;;;;;;;2.00;1.47;;;25.80;72.20;;;;;;5031434;28;20422;-75
2022/06/02 10:30:51;;;;;;;2.40;1.40;;;26.00;76.10;;;;;;5012960;28;20525;-75
2022/06/02 10:33:25;;;;;;;4.40;1.53;;;26.10;74.40;;;;;;5031048;28;20946;-75
2022/06/02 10:36:35;;;;;;;2.60;1.73;;;26.30;72.30;;;;;;5013005;28;20418;-75
2022/06/02 10:39:19;;;;;;;2.40;1.80;;;26.40;71.70;;;;;;4974973;28;20423;-75
2022/06/02 10:42:29;;;;;;;10.10;1.70;;;26.50;68.40;;;;;;5030180;28;20435;-75
2022/06/02 10:45:13;;;;;;;1.40;1.30;;;26.50;70.80;;;;;;5004718;28;20426;-75
2022/06/02 10:48:06;;;;;;;2.33;1.50;;;26.60;70.30;;;;;;5030336;28;21149;-75
2022/06/02 10:50:55;;;;;;;4.40;1.20;;;26.70;69.60;;;;;;5012128;28;20467;-75
2022/06/02 10:54:06;;;;;;;1.50;1.20;;;26.90;70.40;;;;;;5030069;28;20424;-75
2022/06/02 10:57:10;;;;;;;2.20;1.67;;;27.10;68.70;;;;;;4942665;28;20991;-75
2022/06/02 10:59:47;;;;;;;1.50;1.40;;;27.00;67.10;;;;;;4960040;28;20427;-75
2022/06/02 11:02:51;;;;;;;2.77;1.73;;;27.00;65.20;;;;;;5012500;28;20431;-75
2022/06/02 11:05:28;;;;;;;2.33;1.80;;;27.10;66.70;;;;;;5030022;28;20411;-75
2022/06/02 11:08:15;;;;;;;1.57;1.20;;;27.20;67.10;;;;;;5029782;28;20442;-75
2022/06/02 11:11:19;;;;;;;3.47;1.50;;;27.30;68.80;;;;;;5029964;28;20465;-75
2022/06/02 11:14:02;;;;;;;3.37;1.70;;;27.50;67.00;;;;;;5012048;28;20422;-75
2022/06/02 11:16:46;;;;;;;4.97;0.97;;;27.50;63.50;;;;;;5030216;28;20799;-75
2022/06/02 11:19:26;;;;;;;2.07;0.97;;;27.60;67.90;;;;;;5012411;28;20430;-75
2022/06/02 11:22:29;;;;;;;2.90;1.40;;;27.60;66.40;;;;;;5030169;28;20427;-75
2022/06/02 11:25:10;;;;;;;2.40;1.70;;;27.80;64.10;;;;;;5030462;28;20465;-75
2022/06/02 11:28:03;;;;;;;5.30;1.40;;;27.80;65.80;;;;;;5030153;28;20412;-75
2022/06/02 11:30:53;;;;;;;6.30;1.40;;;27.90;67.70;;;;;;5030107;28;20466;-75
2022/06/02 11:33:28;;;;;;;3.67;1.20;;;28.10;65.20;;;;;;5030148;28;20407;-75
2022/06/02 11:36:12;;;;;;;1.10;1.00;;;28.10;63.10;;;;;;5030155;28;20415;-75
2022/06/02 11:38:56;;;;;;;1.60;1.10;;;28.10;62.00;;;;;;5030192;28;20443;-75
2022/06/02 11:41:44;;;;;;;2.30;1.47;;;28.00;63.10;;;;;;5030052;28;20462;-74
2022/06/02 11:44:46;;;;;;;8.17;1.47;;;28.10;61.80;;;;;;5011046;28;20423;-75
2022/06/02 11:47:29;;;;;;;1.60;1.43;;;28.10;61.00;;;;;;5012150;28;20798;-75
2022/06/02 11:50:23;;;;;;;4.07;1.50;;;28.10;63.30;;;;;;5029785;28;20824;-75
2022/06/02 11:53:17;;;;;;;2.27;1.30;;;28.30;63.60;;;;;;5011567;28;20451;-75
2022/06/02 11:55:49;;;;;;;1.43;1.20;;;28.30;63.10;;;;;;5029597;28;20419;-75
2022/06/02 11:58:18;;;;;;;2.67;1.50;;;28.40;60.20;;;;;;5029575;28;20410;-75
2022/06/02 12:00:55;;;;;;;2.40;1.03;;;28.50;61.10;;;;;;5029326;28;20403;-75
2022/06/02 12:03:27;;;;;;;1.43;1.10;;;28.50;60.00;;;;;;5029324;28;20521;-75
2022/06/02 12:06:18;;;;;;;3.57;1.37;;;28.40;58.80;;;;;;5085447;27;20523;-73
2022/06/02 12:08:58;;;;;;;8.90;1.50;;;28.30;60.80;;;;;;5065426;28;20420;-73
2022/06/02 12:11:27;;;;;;;9.50;1.47;;;28.20;62.10;;;;;;5065818;28;20649;-72
2022/06/02 12:14:32;;;;;;;1.43;1.33;;;27.90;60.20;;;;;;5065346;28;20409;-72
2022/06/02 12:17:04;;;;;;;4.60;1.07;;;27.50;60.80;;;;;;5063946;28;20957;-72
2022/06/02 12:20:01;;;;;;;1.30;1.10;;;27.30;59.40;;;;;;5065472;28;20700;-72
2022/06/02 12:22:45;;;;;;;3.33;1.70;;;27.30;61.70;;;;;;5065852;28;20735;-72
2022/06/02 12:25:43;;;;;;;4.67;1.40;;;27.10;62.90;;;;;;5065730;28;20468;-72
2022/06/02 12:28:30;;;;;;;6.70;1.27;;;27.00;60.80;;;;;;5059809;28;20449;-72
2022/06/02 12:31:27;;;;;;;1.30;1.10;;;26.80;61.10;;;;;;5063693;28;20418;-72
2022/06/02 12:34:34;;;;;;;1.87;1.17;;;26.90;61.30;;;;;;5065208;28;21165;-72
2022/06/02 12:37:20;;;;;;;2.23;1.20;;;26.60;63.50;;;;;;5057006;28;20481;-72
2022/06/02 12:39:54;;;;;;;2.70;1.40;;;26.50;62.50;;;;;;5065015;28;20413;-72
2022/06/02 12:42:58;;;;;;;3.10;1.40;;;26.50;66.10;;;;;;5065479;28;20539;-72
2022/06/02 12:45:39;;;;;;;14.67;1.67;;;26.50;63.50;;;;;;5054026;28;20487;-72
2022/06/02 12:48:36;;;;;;;1.70;1.27;;;26.40;65.10;;;;;;5065246;28;20437;-72
2022/06/02 12:51:28;;;;;;;2.27;1.47;;;26.40;67.00;;;;;;5065275;28;20428;-72
2022/06/02 12:54:16;;;;;;;4.90;1.47;;;26.30;66.00;;;;;;5063854;28;20456;-72
2022/06/02 12:56:59;;;;;;;2.17;1.70;;;26.20;63.80;;;;;;5064724;28;20429;-72
2022/06/02 12:59:25;;;;;;;3.23;1.20;;;26.30;63.20;;;;;;5064797;28;20411;-72
2022/06/02 13:02:07;;;;;;;4.43;1.87;;;26.30;66.20;;;;;;5063056;28;20421;-72
2022/06/02 13:04:36;;;;;;;6.83;1.80;;;26.60;63.80;;;;;;5062280;28;20705;-73
2022/06/02 13:07:20;;;;;;;1.33;1.17;;;26.60;66.60;;;;;;5063733;28;20527;-72
2022/06/02 13:10:19;;;;;;;4.93;1.70;;;26.90;64.70;;;;;;5063545;28;20417;-73
2022/06/02 13:13:12;;;;;;;2.63;1.70;;;26.90;65.60;;;;;;5063981;28;20492;-73
2022/06/02 13:15:49;;;;;;;4.60;1.70;;;27.10;65.30;;;;;;5059866;28;20421;-74
2022/06/02 13:18:47;;;;;;;3.13;1.77;;;27.40;65.60;;;;;;5050924;28;20717;-74
2022/06/02 13:21:51;;;;;;;4.40;1.50;;;27.60;64.10;;;;;;5026744;28;20430;-73
2022/06/02 13:24:23;;;;;;;2.97;1.77;;;28.00;62.40;;;;;;5048676;28;20519;-73
2022/06/02 13:27:09;;;;;;;2.80;1.50;;;28.10;60.50;;;;;;5048703;28;21043;-74
2022/06/02 13:29:41;;;;;;;1.67;1.23;;;28.00;61.90;;;;;;5048703;28;20414;-73
2022/06/02 13:32:47;;;;;;;4.23;1.13;;;28.00;59.60;;;;;;5051012;28;20411;-73
2022/06/02 13:35:37;;;;;;;1.90;1.40;;;27.60;62.40;;;;;;5050590;28;20419;-73
2022/06/02 13:38:37;;;;;;;2.70;1.10;;;27.30;62.70;;;;;;5050207;28;20495;-73
2022/06/02 13:41:32;;;;;;;5.90;1.50;;;27.20;63.90;;;;;;5050696;28;20484;-73
2022/06/02 13:44:24;;;;;;;4.93;2.00;;;27.10;62.50;;;;;;5049454;28;20767;-74
2022/06/02 13:47:09;;;;;;;3.53;1.40;;;26.90;65.10;;;;;;5052125;28;20430;-74
2022/06/02 13:49:55;;;;;;;4.27;1.27;;;26.70;64.90;;;;;;5051296;28;20417;-74
2022/06/02 13:52:42;;;;;;;3.03;1.60;;;26.50;64.50;;;;;;5052550;28;20398;-74
2022/06/02 13:58:48;;;;;;;3.90;1.40;;;25.80;65.90;;;;;;5049592;28;20422;-74
2022/06/02 14:01:47;;;;;;;7.03;1.70;;;25.70;67.70;;;;;;5049036;28;20969;-73
2022/06/02 14:04:36;;;;;;;1.53;1.40;;;25.40;66.10;;;;;;5050068;28;20466;-74
2022/06/02 14:07:51;;;;;;;2.50;1.33;;;25.40;66.10;;;;;;5050140;28;20437;-73
2022/06/02 14:10:54;;;;;;;1.27;1.17;;;25.10;66.60;;;;;;5049228;28;20410;-73
2022/06/02 14:13:33;;;;;;;2.00;1.87;;;24.90;68.00;;;;;;5048385;28;20410;-74
2022/06/02 14:16:06;;;;;;;1.97;1.70;;;24.80;69.30;;;;;;5049984;28;20471;-73
2022/06/02 14:18:53;;;;;;;2.97;1.57;;;24.70;69.10;;;;;;5049912;28;20421;-73
2022/06/02 14:22:02;;;;;;;2.20;1.40;;;24.60;70.20;;;;;;5049704;28;20449;-73
2022/06/02 14:24:51;;;;;;;8.40;2.90;;;24.50;71.10;;;;;;5049788;28;20508;-73
2022/06/02 14:27:44;;;;;;;5.80;1.60;;;24.20;74.40;;;;;;5038160;28;20449;-73
2022/06/02 14:30:16;;;;;;;3.27;1.70;;;24.10;73.00;;;;;;5049592;28;20417;-73
2022/06/02 14:33:10;;;;;;;7.03;1.60;;;24.00;73.30;;;;;;5049517;28;20471;-73
2022/06/02 14:36:07;;;;;;;2.20;1.50;;;24.00;71.10;;;;;;5049910;28;20414;-73
2022/06/02 14:39:11;;;;;;;4.30;1.83;;;23.80;75.80;;;;;;5047831;28;20420;-73
2022/06/02 14:41:52;;;;;;;2.90;1.37;;;23.70;74.80;;;;;;5049429;28;20417;-73
2022/06/02 14:44:41;;;;;;;2.07;1.53;;;23.60;76.90;;;;;;5049106;28;20447;-73
2022/06/02 14:47:16;;;;;;;3.67;1.60;;;23.50;76.20;;;;;;5049091;28;20432;-72
2022/06/02 14:49:42;;;;;;;1.53;1.30;;;23.50;77.00;;;;;;5049363;28;20419;-73
2022/06/02 14:52:41;;;;;;;9.93;1.47;;;23.30;74.70;;;;;;5049595;28;20403;-72
2022/06/02 14:55:30;;;;;;;5.07;1.50;;;23.30;78.20;;;;;;5029274;28;20215;-72
2022/06/02 14:58:28;;;;;;;3.60;1.53;;;23.20;75.40;;;;;;5049696;28;20443;-73
2022/06/02 15:01:02;;;;;;;3.33;1.40;;;23.10;79.40;;;;;;5049818;28;20417;-73
2022/06/02 15:03:47;;;;;;;7.23;1.60;;;23.00;80.60;;;;;;5049608;28;20422;-73
2022/06/02 15:06:37;;;;;;;3.87;1.83;;;22.90;85.00;;;;;;5049321;28;20423;-73
2022/06/02 15:09:15;;;;;;;3.80;1.60;;;22.80;91.30;;;;;;5047795;28;20419;-72
2022/06/02 15:12:05;;;;;;;2.00;1.10;;;22.70;84.90;;;;;;5048070;28;21300;-73
2022/06/02 15:14:34;;;;;;;2.70;1.70;;;22.80;87.10;;;;;;5049242;28;20419;-72
2022/06/02 15:17:18;;;;;;;5.43;1.63;;;22.80;86.20;;;;;;5050801;28;20451;-72
2022/06/02 15:19:53;;;;;;;4.57;1.80;;;22.80;89.30;;;;;;5047500;28;20412;-72
2022/06/02 15:22:46;;;;;;;4.20;1.70;;;22.80;90.80;;;;;;5049071;28;20412;-72
2022/06/02 15:25:30;;;;;;;4.50;1.80;;;22.70;90.70;;;;;;5048968;28;20460;-72
2022/06/02 15:28:30;;;;;;;1.97;1.87;;;22.70;91.20;;;;;;5048928;28;20432;-73
2022/06/02 15:31:10;;;;;;;4.23;2.23;;;22.70;91.00;;;;;;5025277;28;20429;-73
2022/06/02 15:34:04;;;;;;;5.80;1.70;;;22.70;94.00;;;;;;5048929;28;20546;-73
2022/06/02 15:37:02;;;;;;;23.23;4.30;;;22.60;98.80;;;;;;5047374;28;20493;-73
2022/06/02 15:39:46;;;;;;;9.40;2.30;;;22.80;98.10;;;;;;5036000;28;20831;-72
2022/06/02 15:42:44;;;;;;;2.37;2.00;;;22.90;99.90;;;;;;5048884;28;20422;-73
2022/06/02 15:45:31;;;;;;;4.27;1.90;;;22.80;97.40;;;;;;5014187;28;21148;-73
2022/06/02 15:48:16;;;;;;;3.13;1.73;;;22.70;94.90;;;;;;5048338;28;20488;-72
2022/06/02 15:50:56;;;;;;;2.00;1.80;;;23.00;94.80;;;;;;5047933;28;20745;-73
2022/06/02 15:54:00;;;;;;;4.30;2.57;;;23.00;93.00;;;;;;5063162;28;20434;-73
2022/06/02 15:56:54;;;;;;;2.23;1.80;;;22.80;92.60;;;;;;5014048;28;20426;-73
2022/06/02 15:59:41;;;;;;;4.97;2.00;;;22.70;93.50;;;;;;5047704;28;20409;-72
2022/06/02 16:02:29;;;;;;;2.90;1.80;;;22.60;94.40;;;;;;5047791;28;20459;-72
2022/06/02 16:05:29;;;;;;;1.93;1.83;;;22.60;94.30;;;;;;5019013;28;20576;-73
2022/06/02 16:08:12;;;;;;;2.17;1.90;;;22.50;93.00;;;;;;5047863;28;20432;-73
2022/06/02 16:14:04;;;;;;;4.07;1.70;;;22.40;93.30;;;;;;5048151;28;20465;-73
2022/06/02 16:16:54;;;;;;;4.60;1.83;;;22.30;93.90;;;;;;5047632;28;20435;-73
2022/06/02 16:19:38;;;;;;;4.40;1.57;;;22.30;92.70;;;;;;5047767;28;20412;-75
2022/06/02 16:22:52;;;;;;;7.17;1.50;;;22.20;93.60;;;;;;5047688;28;20416;-72
2022/06/02 16:26:04;;;;;;;2.17;1.93;;;22.20;94.20;;;;;;5051600;28;20574;-73
2022/06/02 16:28:42;;;;;;;4.37;1.90;;;22.20;94.90;;;;;;5045701;28;20438;-72
2022/06/02 16:31:30;;;;;;;5.23;2.03;;;22.20;95.60;;;;;;5045400;28;20431;-72
2022/06/02 16:34:16;;;;;;;5.93;1.60;;;22.20;95.60;;;;;;5047001;28;20458;-73
2022/06/02 16:37:09;;;;;;;9.03;4.20;;;22.10;94.50;;;;;;5014300;28;20467;-72
2022/06/02 16:39:57;;;;;;;5.17;2.20;;;22.10;95.20;;;;;;5046745;28;20410;-72
2022/06/02 16:42:35;;;;;;;2.10;1.77;;;22.10;95.50;;;;;;5046686;28;20407;-72
2022/06/02 16:45:20;;;;;;;2.30;2.00;;;22.10;94.90;;;;;;5044848;28;20470;-71
2022/06/02 16:48:23;;;;;;;2.50;2.23;;;22.20;95.60;;;;;;5045360;28;20876;-71
2022/06/02 16:51:31;;;;;;;8.90;1.97;;;22.30;95.50;;;;;;5046376;28;20446;-72
2022/06/02 16:54:29;;;;;;;3.20;1.90;;;22.40;94.50;;;;;;5051479;28;20540;-73
2022/06/02 16:57:21;;;;;;;5.83;2.27;;;22.60;94.50;;;;;;5051417;28;20432;-72
2022/06/02 17:00:00;;;;;;;4.00;2.90;;;22.80;93.80;;;;;;5050296;28;20845;-72
2022/06/02 17:02:58;;;;;;;7.63;2.10;;;22.90;92.90;;;;;;5051840;28;20933;-72
2022/06/02 17:05:48;;;;;;;2.00;1.73;;;22.90;93.00;;;;;;5051513;28;20483;-72
2022/06/02 17:08:29;;;;;;;2.70;1.80;;;22.90;94.80;;;;;;5051175;28;20436;-72
2022/06/02 17:11:13;;;;;;;2.80;1.97;;;22.90;93.50;;;;;;5051018;28;20412;-72
2022/06/02 17:14:11;;;;;;;2.50;1.60;;;22.90;91.30;;;;;;5049996;28;20415;-72
2022/06/02 17:16:57;;;;;;;4.23;1.93;;;22.80;91.70;;;;;;5051713;28;20477;-72
2022/06/02 17:19:46;;;;;;;5.10;2.03;;;22.80;90.10;;;;;;5051454;28;20475;-72
2022/06/02 17:22:49;;;;;;;4.73;2.10;;;22.80;90.40;;;;;;5051362;28;20515;-72
2022/06/02 17:25:15;;;;;;;1.97;1.67;;;22.80;89.60;;;;;;5051161;28;20484;-72
2022/06/02 17:27:52;;;;;;;1.97;1.67;;;22.70;90.10;;;;;;5050994;28;20435;-72
2022/06/02 17:30:44;;;;;;;3.30;2.70;;;22.70;90.00;;;;;;5051259;28;20630;-72
2022/06/02 17:33:23;;;;;;;2.87;1.90;;;22.60;90.40;;;;;;5051071;28;20410;-72
2022/06/02 17:36:09;;;;;;;2.10;1.80;;;22.60;92.00;;;;;;5050962;28;20880;-71
2022/06/02 17:38:54;;;;;;;3.03;1.47;;;22.50;91.10;;;;;;5066330;28;20427;-72
2022/06/02 17:41:57;;;;;;;6.83;1.50;;;22.40;92.80;;;;;;5049564;28;20432;-72
2022/06/02 17:44:25;;;;;;;5.70;2.00;;;22.40;91.50;;;;;;5049474;28;20472;-72
2022/06/02 17:47:12;;;;;;;2.20;1.57;;;22.40;92.60;;;;;;5050871;28;20439;-72
2022/06/02 17:49:51;;;;;;;3.57;1.70;;;22.40;90.80;;;;;;5049554;28;20508;-72
2022/06/02 17:52:41;;;;;;;3.33;1.80;;;22.30;92.60;;;;;;5050722;28;20965;-72
2022/06/02 17:55:16;;;;;;;2.53;2.20;;;22.20;93.60;;;;;;5050717;28;20415;-72
2022/06/02 17:57:56;;;;;;;4.20;1.40;;;22.20;93.00;;;;;;5050521;28;20934;-72
2022/06/02 18:00:57;;;;;;;1.93;1.63;;;22.20;92.90;;;;;;5050393;28;20514;-72
2022/06/02 18:03:37;;;;;;;2.60;1.77;;;22.20;93.20;;;;;;5050883;28;20453;-71
2022/06/02 18:06:41;;;;;;;3.57;1.80;;;22.20;93.00;;;;;;5051118;28;21025;-72
2022/06/02 18:09:19;;;;;;;3.47;1.80;;;22.10;94.50;;;;;;5050394;28;20434;-72
2022/06/02 18:14:35;;;;;;;2.07;1.90;;;22.00;96.30;;;;;;5017022;23;20505;-77
2022/06/02 18:17:53;;;;;;;2.27;1.60;;;21.80;93.90;;;;;;5011545;28;20913;-78
2022/06/02 18:20:45;;;;;;;2.10;1.90;;;21.70;94.20;;;;;;4967468;28;20422;-78
2022/06/02 18:23:14;;;;;;;2.37;2.17;;;21.70;94.50;;;;;;4991778;28;20404;-77
2022/06/02 18:25:49;;;;;;;4.67;2.17;;;21.60;94.60;;;;;;4990129;28;20472;-77
2022/06/02 18:28:36;;;;;;;2.60;2.40;;;21.50;96.90;;;;;;4991657;28;20852;-77
2022/06/02 18:31:26;;;;;;;2.63;2.37;;;21.50;97.80;;;;;;4991066;28;20433;-78
2022/06/02 18:34:14;;;;;;;5.40;2.00;;;21.40;98.30;;;;;;4989581;28;20422;-77
2022/06/02 18:37:22;;;;;;;2.40;2.20;;;21.30;99.00;;;;;;4990668;28;20547;-77
2022/06/02 18:40:25;;;;;;;2.90;2.60;;;21.20;99.90;;;;;;4990815;28;20443;-77
2022/06/02 18:43:09;;;;;;;5.73;2.27;;;21.10;99.90;;;;;;4990582;28;20441;-77
2022/06/02 18:45:42;;;;;;;7.10;2.80;;;21.10;99.90;;;;;;4990565;28;20471;-77
2022/06/02 18:48:21;;;;;;;2.53;2.33;;;21.00;99.90;;;;;;4989046;28;21008;-77
2022/06/02 18:51:11;;;;;;;4.97;2.90;;;20.90;99.90;;;;;;4990506;28;20417;-77
2022/06/02 18:53:56;;;;;;;3.10;2.90;;;20.90;99.90;;;;;;4990613;28;20646;-77
2022/06/02 18:56:47;;;;;;;3.50;3.20;;;20.80;99.90;;;;;;4990628;28;21051;-77
2022/06/02 18:59:34;;;;;;;3.17;2.73;;;20.60;99.90;;;;;;4967182;28;20432;-77
2022/06/02 19:02:37;;;;;;;4.17;2.40;;;20.60;99.90;;;;;;4988566;28;20440;-77
2022/06/02 19:05:22;;;;;;;5.53;3.27;;;20.60;99.90;;;;;;4995761;28;20475;-77
2022/06/02 19:15:02;;;;;;;3.13;2.83;;;20.10;99.90;;;;;;4989527;28;20819;-77
2022/06/02 19:17:58;;;;;;;2.80;2.60;;;20.00;99.90;;;;;;4966688;28;20472;-77
2022/06/02 19:20:48;;;;;;;6.67;2.60;;;19.90;99.90;;;;;;4989825;28;20500;-77
2022/06/02 19:23:27;;;;;;;2.80;2.60;;;19.70;99.90;;;;;;4989880;28;20428;-77
2022/06/02 19:25:56;;;;;;;3.13;2.83;;;19.60;99.90;;;;;;4988126;28;20471;-77
2022/06/02 19:28:53;;;;;;;4.00;2.97;;;19.50;99.90;;;;;;4989638;28;20413;-77
2022/06/02 19:31:43;;;;;;;4.87;3.03;;;19.40;99.90;;;;;;4989527;28;20448;-77
2022/06/02 19:34:42;;;;;;;3.27;2.97;;;19.30;99.90;;;;;;4989487;28;20905;-77
2022/06/02 19:37:22;;;;;;;6.23;2.93;;;19.10;99.90;;;;;;4962389;28;20852;-77
2022/06/02 19:40:08;;;;;;;4.30;2.50;;;18.90;99.90;;;;;;4989350;28;20464;-77
2022/06/02 19:42:49;;;;;;;4.60;3.03;;;18.70;99.90;;;;;;4987852;28;20455;-77
2022/06/02 19:45:24;;;;;;;3.20;2.90;;;18.60;99.90;;;;;;4989306;28;20476;-77
2022/06/02 19:47:59;;;;;;;3.40;2.77;;;18.50;99.90;;;;;;4989312;28;20778;-77
2022/06/02 19:50:37;;;;;;;3.97;3.57;;;18.50;99.90;;;;;;4987882;28;20583;-77
2022/06/02 19:53:32;;;;;;;4.93;3.37;;;18.50;99.90;;;;;;4989203;28;20856;-77
2022/06/02 19:56:16;;;;;;;6.90;2.93;;;18.30;99.90;;;;;;4989307;28;20420;-77
2022/06/02 19:58:54;;;;;;;4.80;2.87;;;18.20;99.90;;;;;;4989592;28;20503;-77
2022/06/02 20:01:37;;;;;;;4.93;2.50;;;18.10;99.90;;;;;;4989672;28;20448;-77
2022/06/02 20:04:10;;;;;;;5.10;3.37;;;18.00;99.90;;;;;;4989728;28;20476;-77
2022/06/02 20:06:36;;;;;;;7.80;3.30;;;17.80;99.90;;;;;;4988570;28;20413;-77
2022/06/02 20:09:13;;;;;;;4.77;3.07;;;17.60;99.90;;;;;;4988758;28;20488;-77
2022/06/02 20:11:43;;;;;;;4.27;3.13;;;17.60;99.90;;;;;;4988393;28;20205;-77
2022/06/02 20:14:34;;;;;;;5.60;3.07;;;17.60;99.90;;;;;;4989854;28;20434;-77
2022/06/02 20:17:12;;;;;;;3.07;2.87;;;17.60;99.90;;;;;;4989927;28;20471;-77
2022/06/02 20:19:43;;;;;;;4.77;3.63;;;17.60;99.90;;;;;;4989926;28;20424;-77
2022/06/02 20:22:16;;;;;;;5.60;3.27;;;17.60;99.90;;;;;;4988303;28;20459;-77
2022/06/02 20:24:54;;;;;;;4.60;3.53;;;17.50;99.90;;;;;;4988281;28;20472;-77
2022/06/02 20:27:24;;;;;;;3.37;3.10;;;17.40;99.90;;;;;;4991466;28;21001;-77
2022/06/02 20:30:01;;;;;;;3.33;3.03;;;17.40;99.90;;;;;;4993705;28;20523;-78
2022/06/02 20:33:23;;;;;;;4.97;3.40;;;17.30;99.90;;;;;;4993881;28;20445;-77
2022/06/02 20:36:22;;;;;;;3.33;3.03;;;17.30;99.90;;;;;;4932609;29;20437;-77
2022/06/02 20:38:54;;;;;;;4.13;3.73;;;17.20;99.90;;;;;;4932779;29;20903;-77
2022/06/02 20:41:50;;;;;;;3.90;3.30;;;17.20;99.90;;;;;;4984864;28;20451;-77
2022/06/02 20:44:44;;;;;;;7.33;3.27;;;17.20;99.90;;;;;;4991928;28;20460;-77
2022/06/02 20:47:24;;;;;;;3.73;3.30;;;17.20;99.90;;;;;;5009583;28;20930;-77
2022/06/02 20:50:12;;;;;;;3.50;3.20;;;17.00;99.90;;;;;;4992907;28;20518;-77
2022/06/02 20:52:38;;;;;;;8.90;3.80;;;17.00;99.90;;;;;;4996948;28;20437;-77
2022/06/02 20:55:05;;;;;;;4.43;4.00;;;17.00;99.90;;;;;;4997195;28;20435;-77
2022/06/02 20:57:37;;;;;;;5.03;3.50;;;16.90;99.90;;;;;;4998773;28;20236;-78
2022/06/02 21:00:25;;;;;;;5.60;3.67;;;16.90;99.90;;;;;;5001338;28;20413;-78
2022/06/02 21:03:14;;;;;;;5.13;3.73;;;16.90;99.90;;;;;;5003514;28;20448;-79